Time;durP1;ratioP1;P1;durP2;ratioP2;P2;SDS_P1;SDS_P2;PMS_P1;PMS_P2;Temp;Humidity;BMP_temperature;BMP_pressure;BME280_temperature;BME280_humidity;BME280_pressure;Samples;Min_cycle;Max_cycle;Signal;HPM_P1;HPM_P2
2023/01/20 00:01:37;;;;;;;22.70;12.45;;;-0.50;76.30;;;;;;4990714;28;20014;-81
2023/01/20 00:04:03;;;;;;;25.73;11.80;;;-0.50;76.20;;;;;;4973213;28;20030;-77
2023/01/20 00:06:29;;;;;;;18.45;10.93;;;-0.50;76.30;;;;;;4973473;28;20022;-77
2023/01/20 00:08:58;;;;;;;19.17;11.07;;;-0.40;76.20;;;;;;4976374;28;20026;-75
2023/01/20 00:11:24;;;;;;;18.73;11.07;;;-0.40;76.20;;;;;;4961226;28;20122;-79
2023/01/20 00:14:00;;;;;;;20.17;11.30;;;-0.40;76.20;;;;;;4976812;28;20567;-79
2023/01/20 00:16:27;;;;;;;18.63;11.10;;;-0.40;76.30;;;;;;4976697;28;20071;-83
2023/01/20 00:18:54;;;;;;;23.00;11.82;;;-0.40;76.40;;;;;;4976814;28;20037;-79
2023/01/20 00:21:20;;;;;;;19.13;11.30;;;-0.40;76.60;;;;;;4976890;28;20026;-84
2023/01/20 00:23:46;;;;;;;22.65;12.02;;;-0.40;76.90;;;;;;4976953;28;20019;-87
2023/01/20 00:26:15;;;;;;;20.67;11.68;;;-0.40;76.90;;;;;;4977362;28;20096;-81
2023/01/20 00:28:41;;;;;;;22.80;12.07;;;-0.40;76.80;;;;;;4977114;28;20023;-78
2023/01/20 00:31:26;;;;;;;19.67;11.02;;;-0.40;76.80;;;;;;4976583;28;20030;-79
2023/01/20 00:33:57;;;;;;;17.38;9.90;;;-0.50;76.60;;;;;;4976768;28;20030;-81
2023/01/20 00:36:25;;;;;;;19.85;10.50;;;-0.60;76.10;;;;;;4976508;28;20030;-80
2023/01/20 00:38:51;;;;;;;19.38;9.88;;;-0.60;76.10;;;;;;4976834;28;20084;-85
2023/01/20 00:41:17;;;;;;;17.42;9.93;;;-0.60;76.30;;;;;;4976897;28;20027;-77
2023/01/20 00:43:43;;;;;;;21.33;10.20;;;-0.50;76.70;;;;;;4982917;28;20030;-76
2023/01/20 00:46:09;;;;;;;19.02;9.98;;;-0.50;76.80;;;;;;4966362;28;20037;-80
2023/01/20 00:48:35;;;;;;;19.27;9.93;;;-0.50;76.70;;;;;;5003650;28;20110;-74
2023/01/20 00:51:02;;;;;;;20.40;9.60;;;-0.50;76.50;;;;;;4988194;28;20018;-74
2023/01/20 00:53:27;;;;;;;19.73;10.02;;;-0.50;76.30;;;;;;4989348;28;20058;-75
2023/01/20 00:55:53;;;;;;;17.50;9.95;;;-0.50;75.80;;;;;;4979665;28;20058;-79
2023/01/20 00:58:19;;;;;;;18.63;10.50;;;-0.50;75.60;;;;;;4976504;28;20030;-76
2023/01/20 01:00:52;;;;;;;16.90;9.02;;;-0.60;75.50;;;;;;4981407;28;20095;-75
2023/01/20 01:03:18;;;;;;;17.30;8.98;;;-0.60;75.60;;;;;;4979735;28;20022;-75
2023/01/20 01:05:44;;;;;;;14.63;8.23;;;-0.60;75.60;;;;;;4981854;28;20108;-78
2023/01/20 01:08:10;;;;;;;15.07;9.15;;;-0.60;76.00;;;;;;4978491;28;20037;-82
2023/01/20 01:10:37;;;;;;;17.58;8.60;;;-0.50;76.00;;;;;;5015178;28;20466;-83
2023/01/20 01:13:03;;;;;;;15.15;8.40;;;-0.50;75.90;;;;;;5054891;28;20028;-78
2023/01/20 01:15:29;;;;;;;13.85;8.40;;;-0.40;75.70;;;;;;5054669;28;20115;-79
2023/01/20 01:17:57;;;;;;;16.55;8.63;;;-0.40;75.50;;;;;;5054785;28;20067;-80
2023/01/20 01:20:24;;;;;;;12.88;8.23;;;-0.40;75.40;;;;;;5056959;28;20101;-75
2023/01/20 01:22:50;;;;;;;16.98;9.02;;;-0.40;75.40;;;;;;5054014;28;20021;-75
2023/01/20 01:25:15;;;;;;;17.20;9.98;;;-0.30;75.40;;;;;;5053831;28;20021;-75
2023/01/20 01:27:41;;;;;;;16.27;9.43;;;-0.20;75.60;;;;;;5053505;28;20492;-75
2023/01/20 01:30:09;;;;;;;16.48;9.35;;;-0.30;75.60;;;;;;5053759;28;20033;-76
2023/01/20 01:32:35;;;;;;;19.35;9.85;;;-0.30;75.50;;;;;;5053326;28;20627;-76
2023/01/20 01:35:02;;;;;;;19.88;10.55;;;-0.30;75.60;;;;;;5054333;28;20031;-80
2023/01/20 01:37:28;;;;;;;13.25;8.35;;;-0.30;75.50;;;;;;5054561;28;20509;-77
2023/01/20 01:39:54;;;;;;;15.57;9.07;;;-0.30;75.70;;;;;;5053540;28;20139;-79
2023/01/20 01:42:23;;;;;;;15.82;8.95;;;-0.30;75.60;;;;;;5053534;28;20021;-77
2023/01/20 01:45:11;;;;;;;15.60;8.77;;;-0.30;75.70;;;;;;5053856;28;20132;-79
2023/01/20 01:47:42;;;;;;;15.32;9.15;;;-0.20;75.50;;;;;;5055786;28;20017;-82
2023/01/20 01:50:12;;;;;;;11.95;7.35;;;-0.30;74.80;;;;;;5056676;28;20024;-77
2023/01/20 01:52:40;;;;;;;11.10;7.25;;;-0.30;74.80;;;;;;5056636;28;20024;-80
2023/01/20 01:55:06;;;;;;;13.73;7.78;;;-0.30;74.60;;;;;;5055973;28;20465;-84
2023/01/20 01:57:34;;;;;;;17.90;7.85;;;-0.40;74.50;;;;;;5059000;28;20025;-80
2023/01/20 02:00:01;;;;;;;12.57;7.57;;;-0.40;74.50;;;;;;5064332;28;20025;-84
2023/01/20 02:02:28;;;;;;;14.30;7.45;;;-0.40;74.70;;;;;;5064542;28;20028;-80
2023/01/20 02:04:53;;;;;;;14.80;8.40;;;-0.40;74.80;;;;;;5055407;28;20488;-77
2023/01/20 02:07:20;;;;;;;16.67;9.75;;;-0.40;75.10;;;;;;5053067;28;20029;-74
2023/01/20 02:09:46;;;;;;;16.27;8.55;;;-0.40;75.20;;;;;;5053600;28;20056;-80
2023/01/20 02:12:16;;;;;;;15.20;8.07;;;-0.40;75.00;;;;;;5053518;28;20072;-80
2023/01/20 02:15:03;;;;;;;14.98;7.85;;;-0.50;75.00;;;;;;5053137;28;20017;-79
2023/01/20 02:17:44;;;;;;;15.00;7.85;;;-0.50;75.00;;;;;;5054230;28;20040;-85
2023/01/20 02:20:13;;;;;;;12.23;6.97;;;-0.50;74.80;;;;;;5053626;28;20094;-75
2023/01/20 02:23:01;;;;;;;13.38;7.88;;;-0.50;74.60;;;;;;5052789;28;20021;-75
2023/01/20 02:25:39;;;;;;;9.75;6.43;;;-0.50;74.40;;;;;;5053321;28;20473;-77
2023/01/20 02:28:27;;;;;;;12.75;7.38;;;-0.50;74.10;;;;;;5053314;28;20112;-84
2023/01/20 02:30:53;;;;;;;12.45;7.25;;;-0.40;74.10;;;;;;5053691;28;20056;-80
2023/01/20 02:33:45;;;;;;;12.35;7.72;;;-0.40;74.10;;;;;;5053195;28;20021;-75
2023/01/20 02:36:15;;;;;;;11.70;7.18;;;-0.40;74.00;;;;;;5053093;28;20116;-75
2023/01/20 02:38:56;;;;;;;16.05;7.55;;;-0.50;74.10;;;;;;5052341;28;20040;-75
2023/01/20 02:41:45;;;;;;;14.27;8.40;;;-0.50;74.30;;;;;;5051989;28;20500;-75
2023/01/20 02:44:36;;;;;;;13.35;7.38;;;-0.50;74.60;;;;;;5052592;28;20025;-75
2023/01/20 02:47:06;;;;;;;12.60;7.82;;;-0.50;74.80;;;;;;5052337;28;20021;-75
2023/01/20 02:49:54;;;;;;;13.02;7.28;;;-0.50;74.90;;;;;;5052396;28;20079;-75
2023/01/20 02:52:25;;;;;;;14.38;7.40;;;-0.60;74.80;;;;;;5052227;28;20021;-77
2023/01/20 02:54:55;;;;;;;13.00;7.40;;;-0.60;74.70;;;;;;5051671;28;20049;-74
2023/01/20 02:57:28;;;;;;;15.55;7.68;;;-0.60;74.70;;;;;;5052440;28;20429;-74
2023/01/20 03:00:03;;;;;;;12.77;7.47;;;-0.70;75.60;;;;;;5052208;28;20481;-76
2023/01/20 03:02:32;;;;;;;10.80;6.20;;;-0.70;74.70;;;;;;5052087;28;20115;-74
2023/01/20 03:05:29;;;;;;;12.38;7.40;;;-0.80;74.90;;;;;;5030448;28;20469;-74
2023/01/20 03:07:57;;;;;;;9.40;5.57;;;-0.80;75.20;;;;;;5035388;28;20033;-76
2023/01/20 03:10:25;;;;;;;12.20;6.10;;;-0.90;75.40;;;;;;5052219;28;20032;-76
2023/01/20 03:12:58;;;;;;;10.13;6.13;;;-1.00;75.20;;;;;;5052375;28;20033;-77
2023/01/20 03:15:29;;;;;;;10.98;5.78;;;-1.00;75.20;;;;;;5051517;28;20155;-77
2023/01/20 03:17:56;;;;;;;9.65;5.93;;;-1.10;75.40;;;;;;5051952;28;20131;-76
2023/01/20 03:20:22;;;;;;;8.82;5.97;;;-1.10;75.60;;;;;;5052893;28;20033;-77
2023/01/20 03:22:48;;;;;;;7.93;5.07;;;-1.10;75.60;;;;;;5058518;28;20044;-75
2023/01/20 03:25:15;;;;;;;11.52;6.47;;;-1.10;75.40;;;;;;5052869;28;20460;-76
2023/01/20 03:27:41;;;;;;;10.52;5.72;;;-1.10;75.40;;;;;;5052191;28;20031;-74
2023/01/20 03:30:15;;;;;;;10.20;5.78;;;-1.10;75.50;;;;;;5051568;28;20100;-73
2023/01/20 03:32:45;;;;;;;9.52;5.75;;;-1.20;75.50;;;;;;5051401;28;20507;-74
2023/01/20 03:35:12;;;;;;;12.02;5.93;;;-1.10;75.50;;;;;;5051830;28;20030;-74
2023/01/20 03:37:38;;;;;;;8.25;5.45;;;-1.20;75.20;;;;;;5051949;28;20060;-75
2023/01/20 03:40:04;;;;;;;11.10;5.65;;;-1.20;75.00;;;;;;5051732;28;20072;-74
2023/01/20 03:42:38;;;;;;;9.48;5.68;;;-1.30;75.00;;;;;;5053385;28;20390;-74
2023/01/20 03:45:08;;;;;;;8.52;5.05;;;-1.30;75.10;;;;;;5055118;28;20021;-74
2023/01/20 03:47:49;;;;;;;8.05;4.30;;;-1.40;75.00;;;;;;5055620;28;20025;-74
2023/01/20 03:50:52;;;;;;;6.80;4.40;;;-1.40;75.00;;;;;;5055634;28;20029;-75
2023/01/20 03:53:33;;;;;;;9.57;4.95;;;-1.40;75.10;;;;;;5055363;28;20025;-75
2023/01/20 03:56:14;;;;;;;8.20;5.03;;;-1.50;74.80;;;;;;5055408;28;20041;-76
2023/01/20 03:58:45;;;;;;;8.95;4.28;;;-1.60;74.50;;;;;;5055559;28;20033;-76
2023/01/20 04:01:13;;;;;;;10.02;5.32;;;-1.70;74.40;;;;;;5055464;28;20493;-76
2023/01/20 04:03:43;;;;;;;9.55;4.35;;;-1.80;74.10;;;;;;5055311;28;20058;-75
2023/01/20 04:06:12;;;;;;;7.55;3.95;;;-1.90;74.00;;;;;;5038558;28;20055;-75
2023/01/20 04:08:47;;;;;;;6.97;4.18;;;-2.00;74.30;;;;;;5055385;28;20036;-76
2023/01/20 04:11:13;;;;;;;7.28;4.22;;;-2.00;74.50;;;;;;5055408;28;20029;-75
2023/01/20 04:13:40;;;;;;;8.43;4.03;;;-2.00;74.80;;;;;;5054521;28;20103;-76
2023/01/20 04:16:13;;;;;;;11.52;4.78;;;-2.00;74.80;;;;;;5054864;28;20056;-75
2023/01/20 04:18:43;;;;;;;10.50;5.10;;;-2.00;74.70;;;;;;5054874;28;20112;-75
2023/01/20 04:21:19;;;;;;;8.52;4.82;;;-2.00;74.70;;;;;;5055103;28;20481;-75
2023/01/20 04:24:08;;;;;;;9.40;4.60;;;-2.10;74.50;;;;;;5055117;28;20025;-76
2023/01/20 04:26:33;;;;;;;5.30;3.50;;;-2.10;74.50;;;;;;5055034;28;20052;-77
2023/01/20 04:29:07;;;;;;;8.27;4.68;;;-2.20;74.20;;;;;;5054802;28;20055;-76
2023/01/20 04:31:35;;;;;;;6.32;4.05;;;-2.20;74.30;;;;;;5055161;28;20052;-75
2023/01/20 04:34:02;;;;;;;5.72;3.90;;;-2.20;74.20;;;;;;5054844;28;20025;-77
2023/01/20 04:36:28;;;;;;;6.93;3.92;;;-2.20;74.10;;;;;;5054725;28;20032;-75
2023/01/20 04:38:53;;;;;;;6.68;4.05;;;-2.20;74.00;;;;;;5055046;28;20021;-86
2023/01/20 04:41:20;;;;;;;7.65;3.83;;;-2.30;74.00;;;;;;5054874;28;20393;-78
2023/01/20 04:43:47;;;;;;;6.05;4.13;;;-2.30;73.90;;;;;;5055077;28;20021;-76
2023/01/20 04:46:14;;;;;;;10.50;4.40;;;-2.40;73.90;;;;;;5055107;28;20029;-75
2023/01/20 04:48:40;;;;;;;7.22;4.00;;;-2.40;74.00;;;;;;5055159;28;20021;-75
2023/01/20 04:51:07;;;;;;;8.95;4.07;;;-2.50;74.30;;;;;;5053353;28;20028;-76
2023/01/20 04:53:33;;;;;;;5.65;3.78;;;-2.50;74.60;;;;;;5053379;28;20075;-75
2023/01/20 04:55:59;;;;;;;7.43;4.20;;;-2.50;74.70;;;;;;5053420;28;20049;-76
2023/01/20 04:58:24;;;;;;;7.53;4.18;;;-2.60;74.70;;;;;;5053988;28;20058;-75
2023/01/20 05:00:50;;;;;;;5.93;3.92;;;-2.50;75.00;;;;;;5054232;28;20028;-75
2023/01/20 05:03:15;;;;;;;6.55;3.55;;;-2.50;75.00;;;;;;5054280;28;20588;-75
2023/01/20 05:05:41;;;;;;;9.60;4.30;;;-2.60;75.00;;;;;;5054682;28;20377;-88
2023/01/20 05:08:07;;;;;;;9.00;4.75;;;-2.60;75.20;;;;;;5054756;28;20025;-75
2023/01/20 05:10:33;;;;;;;9.48;4.68;;;-2.60;76.30;;;;;;5054141;28;20465;-77
2023/01/20 05:12:59;;;;;;;9.65;5.43;;;-2.60;75.90;;;;;;5054802;28;20056;-74
2023/01/20 05:15:25;;;;;;;9.05;5.38;;;-2.60;76.00;;;;;;5038782;28;20060;-75
2023/01/20 05:17:50;;;;;;;10.23;5.45;;;-2.60;75.80;;;;;;5056262;28;20358;-74
2023/01/20 05:20:19;;;;;;;12.48;5.53;;;-2.60;75.80;;;;;;5055912;28;20037;-74
2023/01/20 05:22:45;;;;;;;7.97;4.80;;;-2.50;75.50;;;;;;5061735;28;20084;-73
2023/01/20 05:25:10;;;;;;;8.95;5.20;;;-2.40;75.40;;;;;;5057203;28;20021;-75
2023/01/20 05:27:37;;;;;;;11.93;6.45;;;-2.40;75.40;;;;;;5053876;28;20488;-75
2023/01/20 05:30:05;;;;;;;18.73;9.35;;;-2.40;75.20;;;;;;5055157;28;20083;-75
2023/01/20 05:32:30;;;;;;;13.68;7.93;;;-2.50;75.10;;;;;;5053543;28;20032;-77
2023/01/20 05:34:57;;;;;;;12.75;6.63;;;-2.50;75.40;;;;;;5053438;28;20029;-76
2023/01/20 05:37:23;;;;;;;12.80;6.78;;;-2.50;76.50;;;;;;5053519;28;20614;-75
2023/01/20 05:39:48;;;;;;;11.75;6.90;;;-2.50;75.90;;;;;;5053256;28;20136;-75
2023/01/20 05:42:14;;;;;;;11.18;6.53;;;-2.40;75.70;;;;;;5053486;28;20025;-75
2023/01/20 05:44:40;;;;;;;9.68;5.50;;;-2.40;75.60;;;;;;5053720;28;20064;-74
2023/01/20 05:47:06;;;;;;;9.57;6.07;;;-2.40;75.40;;;;;;5053568;28;20036;-79
2023/01/20 05:49:32;;;;;;;9.85;5.13;;;-2.40;75.00;;;;;;5053619;28;20074;-75
2023/01/20 05:51:58;;;;;;;11.40;5.78;;;-2.40;75.00;;;;;;5053175;28;20021;-75
2023/01/20 05:54:24;;;;;;;6.85;4.40;;;-2.40;75.20;;;;;;5053905;28;20025;-80
2023/01/20 05:56:50;;;;;;;7.50;4.80;;;-2.40;75.10;;;;;;5074734;28;20120;-80
2023/01/20 05:59:16;;;;;;;12.93;5.35;;;-2.40;75.00;;;;;;5040617;28;20099;-78
2023/01/20 06:01:41;;;;;;;8.00;4.53;;;-2.40;75.00;;;;;;5057514;28;20522;-81
2023/01/20 06:04:07;;;;;;;9.52;4.97;;;-2.40;74.80;;;;;;5056385;28;20539;-76
2023/01/20 06:06:33;;;;;;;10.30;5.97;;;-2.40;74.90;;;;;;5055755;28;20020;-78
2023/01/20 06:08:58;;;;;;;10.63;6.05;;;-2.40;74.60;;;;;;5056193;28;20055;-75
2023/01/20 06:11:24;;;;;;;13.45;7.57;;;-2.40;75.30;;;;;;5056137;28;20035;-76
2023/01/20 06:13:50;;;;;;;14.65;7.90;;;-2.40;74.40;;;;;;5056310;28;20426;-77
2023/01/20 06:16:16;;;;;;;14.40;7.45;;;-2.50;74.50;;;;;;5056161;28;20024;-74
2023/01/20 06:18:42;;;;;;;15.50;8.05;;;-2.50;74.60;;;;;;5056216;28;20024;-74
2023/01/20 06:21:08;;;;;;;16.95;8.18;;;-2.60;74.80;;;;;;5056604;28;20492;-79
2023/01/20 06:23:34;;;;;;;13.75;7.68;;;-2.60;75.40;;;;;;5056061;28;20078;-74
2023/01/20 06:26:02;;;;;;;15.40;7.75;;;-2.60;75.80;;;;;;5057081;28;20042;-81
2023/01/20 06:28:28;;;;;;;13.18;7.75;;;-2.60;76.00;;;;;;5056418;28;20032;-76
2023/01/20 06:31:14;;;;;;;18.55;8.23;;;-2.60;76.00;;;;;;5056117;28;20063;-82
2023/01/20 06:33:41;;;;;;;17.95;8.43;;;-2.50;75.90;;;;;;5056166;28;20116;-75
2023/01/20 06:36:07;;;;;;;11.82;7.32;;;-2.40;75.80;;;;;;5055832;28;20028;-76
2023/01/20 06:38:34;;;;;;;13.32;6.70;;;-2.40;75.60;;;;;;5054921;28;20089;-77
2023/01/20 06:41:06;;;;;;;11.35;6.50;;;-2.30;78.10;;;;;;5055496;28;20127;-75
2023/01/20 06:43:33;;;;;;;13.07;7.60;;;-2.10;77.50;;;;;;5055847;28;20020;-73
2023/01/20 06:46:03;;;;;;;10.43;6.30;;;-2.00;77.70;;;;;;5054972;28;20427;-83
2023/01/20 06:48:29;;;;;;;11.35;6.30;;;-1.80;76.70;;;;;;5055228;28;20053;-73
2023/01/20 06:51:03;;;;;;;10.70;6.70;;;-1.80;75.10;;;;;;5055136;28;20025;-76
2023/01/20 06:53:29;;;;;;;11.45;6.40;;;-1.90;73.90;;;;;;5055160;28;20028;-74
2023/01/20 06:55:56;;;;;;;9.93;5.95;;;-1.90;74.70;;;;;;5051215;28;20061;-74
2023/01/20 06:58:23;;;;;;;13.65;6.63;;;-1.80;74.70;;;;;;5051948;28;20083;-77
2023/01/20 07:00:50;;;;;;;16.20;7.22;;;-1.50;82.90;;;;;;5051429;28;20036;-76
2023/01/20 07:03:15;;;;;;;12.98;6.90;;;-1.30;82.00;;;;;;5051701;28;20101;-76
2023/01/20 07:05:41;;;;;;;12.40;6.65;;;-1.00;79.70;;;;;;5052198;28;20127;-76
2023/01/20 07:08:06;;;;;;;15.75;6.85;;;-0.80;77.30;;;;;;5051589;28;20017;-76
2023/01/20 07:10:32;;;;;;;12.55;6.97;;;-0.50;75.10;;;;;;5051018;28;20389;-76
2023/01/20 07:12:57;;;;;;;13.50;6.97;;;-0.30;74.10;;;;;;5055897;28;20025;-75
2023/01/20 07:15:23;;;;;;;14.75;6.95;;;0.10;73.90;;;;;;5052493;28;20033;-76
2023/01/20 07:17:49;;;;;;;12.15;6.90;;;0.30;70.90;;;;;;5050836;28;20027;-75
2023/01/20 07:20:14;;;;;;;14.90;8.02;;;0.50;71.20;;;;;;5051378;28;20044;-76
2023/01/20 07:22:41;;;;;;;13.30;7.25;;;0.70;69.40;;;;;;5057585;28;20044;-78
2023/01/20 07:25:07;;;;;;;14.95;7.93;;;0.70;67.40;;;;;;5056841;28;20029;-83
2023/01/20 07:27:34;;;;;;;14.90;7.18;;;0.20;64.90;;;;;;5052593;28;20067;-78
2023/01/20 07:30:03;;;;;;;17.50;7.95;;;-0.30;66.90;;;;;;5052420;28;20033;-86
2023/01/20 07:32:29;;;;;;;15.68;7.60;;;-0.50;67.90;;;;;;5052586;28;20423;-81
2023/01/20 07:34:55;;;;;;;12.82;8.10;;;-0.80;68.80;;;;;;5052131;28;20025;-79
2023/01/20 07:37:33;;;;;;;15.25;7.82;;;-1.10;70.40;;;;;;5052080;28;20070;-81
2023/01/20 07:40:00;;;;;;;11.77;7.22;;;-1.10;71.90;;;;;;5051867;28;20120;-78
2023/01/20 07:42:26;;;;;;;13.60;8.48;;;-1.20;71.40;;;;;;5051679;28;20457;-78
2023/01/20 07:44:52;;;;;;;16.40;9.95;;;-1.20;71.40;;;;;;5051353;28;20037;-79
2023/01/20 07:47:18;;;;;;;16.80;9.57;;;-1.30;71.80;;;;;;5052977;28;20057;-82
2023/01/20 07:49:44;;;;;;;18.10;8.70;;;-1.30;72.10;;;;;;5051965;28;20474;-76
2023/01/20 07:52:09;;;;;;;14.20;8.32;;;-1.40;72.30;;;;;;5051753;28;20017;-83
2023/01/20 07:55:04;;;;;;;17.02;9.20;;;-1.40;72.50;;;;;;5054150;28;20039;-87
2023/01/20 07:57:30;;;;;;;13.77;7.88;;;-1.40;73.00;;;;;;5055208;28;20024;-78
2023/01/20 07:59:57;;;;;;;17.50;8.85;;;-1.40;73.20;;;;;;5038908;28;20542;-83
2023/01/20 08:02:23;;;;;;;16.15;8.88;;;-1.40;73.10;;;;;;5054399;28;20056;-82
2023/01/20 08:04:50;;;;;;;12.18;7.60;;;-1.50;73.40;;;;;;5054694;28;20025;-78
2023/01/20 08:07:18;;;;;;;11.50;8.13;;;-1.40;73.60;;;;;;5037071;28;20043;-78
2023/01/20 08:09:43;;;;;;;14.80;8.32;;;-1.40;73.40;;;;;;5054248;28;20082;-77
2023/01/20 08:12:11;;;;;;;17.23;9.23;;;-1.20;73.40;;;;;;5055413;28;20416;-84
2023/01/20 08:14:38;;;;;;;18.70;11.55;;;-1.10;73.30;;;;;;5045046;28;20081;-77
2023/01/20 08:17:13;;;;;;;20.38;11.43;;;-1.10;73.30;;;;;;5055205;28;20029;-84
2023/01/20 08:19:39;;;;;;;16.35;9.77;;;-1.10;73.60;;;;;;5054493;28;20029;-78
2023/01/20 08:22:07;;;;;;;19.02;10.85;;;-1.00;73.60;;;;;;5054519;28;20173;-80
2023/01/20 08:24:33;;;;;;;19.38;10.95;;;-0.90;73.50;;;;;;5038425;28;20032;-80
2023/01/20 08:26:58;;;;;;;20.55;11.55;;;-0.80;73.10;;;;;;5054823;28;20025;-79
2023/01/20 08:29:32;;;;;;;20.33;11.20;;;-0.80;72.40;;;;;;5056602;28;20108;-81
2023/01/20 08:32:01;;;;;;;19.83;9.80;;;-1.00;73.00;;;;;;5058041;28;20032;-79
2023/01/20 08:34:27;;;;;;;16.30;9.00;;;-0.90;73.00;;;;;;5058465;28;20028;-80
2023/01/20 08:36:55;;;;;;;15.15;10.13;;;-1.00;72.60;;;;;;5057803;28;20095;-80
2023/01/20 08:39:21;;;;;;;17.50;10.07;;;-0.90;72.50;;;;;;5057911;28;20024;-80
2023/01/20 08:41:47;;;;;;;17.58;10.70;;;-0.80;72.30;;;;;;5057492;28;20079;-79
2023/01/20 08:44:15;;;;;;;18.98;10.75;;;-0.70;72.40;;;;;;5058428;28;20025;-80
2023/01/20 08:46:42;;;;;;;17.17;9.98;;;-0.60;72.30;;;;;;5076439;28;20024;-80
2023/01/20 08:49:15;;;;;;;18.48;9.82;;;-0.40;72.20;;;;;;5057315;28;20469;-81
2023/01/20 08:51:43;;;;;;;15.57;9.13;;;-0.30;71.90;;;;;;5057880;28;20423;-78
2023/01/20 08:54:09;;;;;;;18.02;9.32;;;-0.10;71.30;;;;;;5057868;28;20024;-82
2023/01/20 08:56:35;;;;;;;16.58;9.80;;;0.00;71.00;;;;;;5061081;28;20082;-81
2023/01/20 08:59:02;;;;;;;22.58;12.13;;;0.20;70.80;;;;;;5057230;28;20024;-79
2023/01/20 09:01:30;;;;;;;20.60;11.90;;;0.40;70.20;;;;;;5057744;28;20033;-80
2023/01/20 09:03:58;;;;;;;21.63;11.32;;;0.60;69.80;;;;;;5058345;28;20024;-80
2023/01/20 09:06:24;;;;;;;17.65;10.60;;;0.70;69.10;;;;;;5040926;28;20047;-83
2023/01/20 09:08:51;;;;;;;15.90;9.68;;;0.80;68.40;;;;;;5075502;28;20028;-81
2023/01/20 09:11:19;;;;;;;15.98;9.48;;;0.90;67.90;;;;;;5057403;28;20120;-82
2023/01/20 09:13:46;;;;;;;17.63;10.10;;;0.90;67.80;;;;;;5076133;28;20090;-82
2023/01/20 09:16:19;;;;;;;19.17;10.23;;;1.00;67.40;;;;;;5059394;28;20040;-80
2023/01/20 09:18:48;;;;;;;19.08;10.73;;;1.00;67.50;;;;;;5059497;28;20408;-82
2023/01/20 09:21:14;;;;;;;19.13;11.30;;;1.00;67.50;;;;;;5059610;28;20040;-80
2023/01/20 09:23:41;;;;;;;18.98;11.32;;;0.90;67.60;;;;;;5057634;28;20027;-83
2023/01/20 09:26:13;;;;;;;22.95;12.05;;;0.90;68.10;;;;;;5057896;28;20024;-77
2023/01/20 09:28:38;;;;;;;18.25;11.55;;;0.90;68.20;;;;;;5058570;28;20028;-77
2023/01/20 09:33:57;;;;;;;31.35;16.05;;;0.80;68.60;;;;;;5291947;22;20503;-80
2023/01/20 09:36:23;;;;;;;26.73;14.50;;;0.70;69.50;;;;;;5056865;28;20067;-80
2023/01/20 09:44:22;;;;;;;28.05;15.43;;;0.80;70.30;;;;;;5074879;28;20090;-77
2023/01/20 09:47:24;;;;;;;28.55;14.60;;;0.90;70.20;;;;;;5074669;28;20028;-78
2023/01/20 09:53:14;;;;;;;26.17;14.30;;;1.20;69.50;;;;;;5074604;28;20027;-78
2023/01/20 09:55:52;;;;;;;22.00;13.02;;;1.40;69.30;;;;;;5074294;28;20024;-79
2023/01/20 09:58:28;;;;;;;22.05;13.13;;;1.60;69.00;;;;;;5074125;28;20020;-77
2023/01/20 10:01:36;;;;;;;25.65;13.77;;;1.90;68.50;;;;;;5074089;28;20033;-78
2023/01/20 10:04:28;;;;;;;21.33;13.77;;;2.30;67.60;;;;;;5059143;28;20033;-78
2023/01/20 10:07:02;;;;;;;20.48;12.05;;;2.70;66.40;;;;;;5074124;28;20029;-78
2023/01/20 10:09:37;;;;;;;22.60;12.20;;;2.90;64.30;;;;;;5073900;28;20028;-78
2023/01/20 10:12:13;;;;;;;12.98;7.93;;;3.10;63.40;;;;;;5074179;28;20020;-77
2023/01/20 10:14:44;;;;;;;18.20;10.90;;;3.30;62.50;;;;;;5072468;28;20519;-77
2023/01/20 10:17:20;;;;;;;14.18;10.20;;;3.40;61.30;;;;;;5079251;28;20023;-77
2023/01/20 10:19:57;;;;;;;18.05;10.82;;;3.60;59.50;;;;;;5074841;28;20125;-77
2023/01/20 10:22:36;;;;;;;15.88;9.93;;;4.10;59.40;;;;;;5074483;28;20385;-77
2023/01/20 10:25:22;;;;;;;15.30;9.60;;;4.50;56.60;;;;;;5073448;28;20099;-78
2023/01/20 10:28:12;;;;;;;14.75;9.10;;;4.80;55.50;;;;;;5073438;28;20020;-79
2023/01/20 10:30:38;;;;;;;14.23;8.70;;;5.20;53.70;;;;;;5073415;28;20028;-80
2023/01/20 10:33:13;;;;;;;12.50;6.15;;;5.50;52.80;;;;;;5073456;28;20033;-78
2023/01/20 10:35:46;;;;;;;13.37;6.60;;;5.50;50.30;;;;;;5073673;28;20017;-76
2023/01/20 10:38:33;;;;;;;11.30;6.55;;;5.40;50.60;;;;;;5073358;28;20275;-78
2023/01/20 10:41:14;;;;;;;8.40;5.45;;;5.20;51.40;;;;;;5073610;28;20079;-78
2023/01/20 10:43:40;;;;;;;9.57;5.82;;;4.80;52.20;;;;;;5073291;28;20021;-78
2023/01/20 10:46:22;;;;;;;9.30;6.20;;;4.50;53.70;;;;;;5073802;28;20064;-83
2023/01/20 10:49:00;;;;;;;9.77;6.15;;;4.90;53.60;;;;;;5055385;28;20473;-82
2023/01/20 10:51:47;;;;;;;9.35;5.72;;;5.40;51.80;;;;;;5072822;28;20358;-77
2023/01/20 10:54:34;;;;;;;8.73;4.85;;;5.70;50.30;;;;;;5073232;28;20025;-78
2023/01/20 10:57:04;;;;;;;8.73;5.28;;;5.90;48.60;;;;;;5079438;28;20016;-86
2023/01/20 10:59:33;;;;;;;7.72;4.60;;;6.30;48.40;;;;;;5073585;28;20032;-78
2023/01/20 11:02:24;;;;;;;9.63;4.35;;;6.20;47.30;;;;;;5072719;28;20020;-82
2023/01/20 11:04:57;;;;;;;7.68;4.85;;;5.90;47.50;;;;;;5073978;28;20028;-85
2023/01/20 11:07:24;;;;;;;6.45;4.85;;;5.90;48.40;;;;;;5074196;28;20073;-84
2023/01/20 11:09:50;;;;;;;7.90;3.97;;;6.10;47.80;;;;;;5074600;28;20028;-86
2023/01/20 11:12:20;;;;;;;11.68;5.15;;;6.50;46.40;;;;;;5074001;28;20021;-78
2023/01/20 11:14:47;;;;;;;4.53;3.08;;;6.70;45.70;;;;;;5079271;28;20025;-93
2023/01/20 11:17:19;;;;;;;7.70;3.72;;;6.60;45.60;;;;;;5079212;28;20021;-81
2023/01/20 11:19:55;;;;;;;7.93;4.18;;;6.50;46.50;;;;;;5078659;28;20435;-88
2023/01/20 11:22:35;;;;;;;13.13;4.95;;;6.40;46.40;;;;;;5080337;28;20028;-86
2023/01/20 11:25:03;;;;;;;9.30;4.43;;;6.60;46.20;;;;;;5076360;28;20056;-87
2023/01/20 11:27:39;;;;;;;8.15;4.65;;;6.80;45.20;;;;;;5074778;28;20029;-87
2023/01/20 11:30:06;;;;;;;;;;;6.90;44.80;;;;;;5075688;28;20025;-86
2023/01/20 11:32:38;;;;;;;8.52;3.63;;;7.00;46.10;;;;;;5057913;28;19909;-86
2023/01/20 11:35:24;;;;;;;5.95;2.78;;;7.00;44.20;;;;;;4993900;28;20031;-87
2023/01/20 11:37:50;;;;;;;9.50;3.78;;;7.20;42.50;;;;;;4977021;28;20557;-88
2023/01/20 11:40:25;;;;;;;6.85;4.20;;;7.30;43.30;;;;;;4992841;28;20073;-86
2023/01/20 11:42:51;;;;;;;5.40;2.72;;;7.50;42.40;;;;;;4974765;28;20041;-82
2023/01/20 11:45:28;;;;;;;5.30;3.83;;;7.60;42.00;;;;;;4990796;28;20033;-78
2023/01/20 11:48:03;;;;;;;8.20;3.72;;;7.50;42.00;;;;;;4990267;28;20058;-76
2023/01/20 11:50:33;;;;;;;;;;;7.50;42.40;;;;;;4990671;28;20104;-80
2023/01/20 11:53:17;;;;;;;2.85;1.98;;;7.60;41.40;;;;;;4974082;28;19945;-84
2023/01/20 11:56:03;;;;;;;5.25;1.60;;;7.80;38.80;;;;;;4990950;28;20067;-77
2023/01/20 11:58:47;;;;;;;8.13;1.95;;;8.20;36.80;;;;;;4990218;28;20113;-77
2023/01/20 12:01:27;;;;;;;5.15;2.20;;;8.50;35.40;;;;;;4990027;28;20068;-78
2023/01/20 12:04:32;;;;;;;6.10;2.17;;;8.00;36.30;;;;;;4991275;28;20018;-77
2023/01/20 12:07:06;;;;;;;3.28;1.80;;;7.90;38.10;;;;;;4993713;28;20014;-79
2023/01/20 12:09:37;;;;;;;5.82;1.40;;;7.90;37.50;;;;;;4993707;28;20105;-79
2023/01/20 12:12:14;;;;;;;4.22;1.85;;;7.00;37.90;;;;;;4995195;28;20072;-86
2023/01/20 12:14:45;;;;;;;5.03;1.40;;;6.70;39.00;;;;;;4997012;28;20356;-80
2023/01/20 12:17:52;;;;;;;4.35;1.40;;;6.70;38.10;;;;;;4995353;28;20018;-85
2023/01/20 12:20:33;;;;;;;4.47;1.80;;;6.60;38.80;;;;;;4995913;28;20058;-79
2023/01/20 12:23:12;;;;;;;5.03;1.58;;;6.40;39.60;;;;;;4996107;28;20393;-87
2023/01/20 12:25:47;;;;;;;6.72;1.77;;;5.80;41.80;;;;;;4994653;28;20022;-79
2023/01/20 12:28:29;;;;;;;4.88;1.88;;;5.40;43.00;;;;;;4992988;28;20046;-77
2023/01/20 12:31:01;;;;;;;4.40;1.40;;;5.00;44.70;;;;;;4992485;28;20525;-78
2023/01/20 12:33:38;;;;;;;3.00;1.67;;;6.00;44.10;;;;;;4993018;28;20042;-77
2023/01/20 12:36:10;;;;;;;5.13;2.67;;;7.30;40.70;;;;;;4992979;28;20031;-79
2023/01/20 12:38:45;;;;;;;9.77;3.10;;;7.30;40.00;;;;;;4993186;28;20417;-86
2023/01/20 12:41:56;;;;;;;4.45;2.63;;;7.10;39.80;;;;;;4993604;28;20092;-88
2023/01/20 12:44:46;;;;;;;6.38;2.70;;;6.80;41.00;;;;;;4995611;28;20096;-84
2023/01/20 12:47:37;;;;;;;11.23;2.65;;;6.20;42.80;;;;;;4993729;28;20382;-88
2023/01/20 12:50:27;;;;;;;5.97;2.83;;;5.80;44.60;;;;;;4994156;28;20034;-82
2023/01/20 12:53:14;;;;;;;5.80;2.60;;;5.50;45.80;;;;;;4993638;28;20026;-88
2023/01/20 12:56:06;;;;;;;6.13;3.33;;;4.80;47.80;;;;;;4993631;28;20200;-87
2023/01/20 12:58:43;;;;;;;5.85;2.95;;;4.40;50.60;;;;;;4993842;28;20054;-88
2023/01/20 13:01:31;;;;;;;5.68;3.20;;;3.90;53.20;;;;;;4993629;28;20030;-85
2023/01/20 13:04:08;;;;;;;5.70;3.25;;;3.70;54.30;;;;;;4994157;28;20022;-89
2023/01/20 13:07:06;;;;;;;5.88;3.15;;;3.50;55.40;;;;;;4993160;28;20037;-84
2023/01/20 13:09:40;;;;;;;6.78;3.50;;;3.30;56.30;;;;;;4999228;28;20105;-77
2023/01/20 13:12:24;;;;;;;6.50;3.95;;;3.00;57.70;;;;;;4994152;28;20117;-84
2023/01/20 13:15:40;;;;;;;8.10;3.35;;;3.00;58.00;;;;;;4992822;28;20126;-82
2023/01/20 13:18:16;;;;;;;7.43;4.18;;;2.90;58.70;;;;;;4977856;28;20042;-80